Phillips Army Air Field Aberdeen Proving Grounds(Aberdeen) US
ICAO: KAPG
IATA: APG
Category: Medium
Scheduled Services: No

Elevation: 57 ft
TransAlt. 18000 ft.

Airport Communications:
POTOMAC APP/DEP:126.75
ATIS:108.4
GND:121.9
TWR:126.15

KAPG Zoom In..

If you have problems with the map follow the link
https://www.worldairports.se/pages/airport.php?
ICAO=KAPG

Runways:

(A) RW 04 length 7997 ft width 200 ft
---- / hdg 38

(B) RW 08 length 4849 ft width 149 ft
---- / hdg 82

(C) RW 17 length 5004 ft width 149 ft
---- / hdg 171

(D) RW 22 length 7997 ft width 200 ft
---- / hdg 218

(E) RW 26 length 4849 ft width 149 ft
---- / hdg 262

(F) RW 35 length 5004 ft width 149 ft
---- / hdg 351

Location; KAPG
Day. 18 / Time. 23.49 Zulu
* Altimeter: 30.39
* Temperature: 05° c. 41°f.
* Wind from: 000° Speed 00 kn.
Dewpoint: 03° c.
Visibility: 7 Statute Miles.
Clouds: Clear (automated report).

KAPG 182349Z 00000KT 7SM CLR 05/03 A3039 RMK SLP295 52009


Wind - Calm.

 
 
jpsmedia.com for Web Design worldairports.se 2018   terms of use